createdAt,value
2019-04-23T00:00:30.604Z,45.99
2019-04-23T00:02:48.858Z,45.96
2019-04-23T00:05:29.207Z,46.07
2019-04-23T00:10:26.271Z,46.32
2019-04-23T00:12:53.069Z,46.50
2019-04-23T00:15:25.111Z,46.62
2019-04-23T00:17:49.072Z,46.66
2019-04-23T00:20:18.878Z,46.86
2019-04-23T00:25:47.108Z,46.95
2019-04-23T00:28:06.568Z,47.22
2019-04-23T00:30:38.217Z,47.42
2019-04-23T00:33:05.348Z,47.38
2019-04-23T00:35:33.964Z,47.37
2019-04-23T00:38:05.998Z,47.46
2019-04-23T00:40:32.090Z,47.63
2019-04-23T00:43:03.865Z,47.82
2019-04-23T00:45:34.665Z,47.98
2019-04-23T00:48:22.986Z,47.97
2019-04-23T00:50:43.242Z,48.01
2019-04-23T00:53:17.500Z,48.26
2019-04-23T00:55:28.189Z,48.13
2019-04-23T00:58:06.214Z,48.26
2019-04-23T01:00:42.469Z,48.32
2019-04-23T01:05:31.000Z,48.76
2019-04-23T01:08:05.065Z,48.70
2019-04-23T01:10:41.631Z,48.72
2019-04-23T01:13:08.678Z,48.70
2019-04-23T01:15:41.151Z,48.68
2019-04-23T01:18:13.182Z,48.81
2019-04-23T01:20:44.475Z,48.92
2019-04-23T01:22:53.031Z,49.00
2019-04-23T01:25:37.719Z,49.02
2019-04-23T01:28:23.476Z,49.05
2019-04-23T01:30:57.404Z,49.30
2019-04-23T01:33:27.047Z,49.21
2019-04-23T01:36:07.882Z,49.28
2019-04-23T01:38:29.580Z,49.29
2019-04-23T01:40:45.765Z,49.47
2019-04-23T01:43:23.457Z,49.56
2019-04-23T01:45:49.462Z,49.63
2019-04-23T01:48:18.191Z,49.72
2019-04-23T01:50:55.010Z,49.76
2019-04-23T01:53:26.523Z,49.78
2019-04-23T01:55:51.180Z,49.83
2019-04-23T02:00:54.534Z,49.98
2019-04-23T02:03:20.774Z,49.99
2019-04-23T02:05:55.795Z,50.09
2019-04-23T02:08:20.724Z,50.15
2019-04-23T02:10:56.431Z,50.17
2019-04-23T02:13:25.376Z,50.26
2019-04-23T02:15:53.455Z,50.34
2019-04-23T02:18:24.982Z,50.48
2019-04-23T02:20:52.604Z,50.48
2019-04-23T02:23:39.554Z,50.46
2019-04-23T02:26:04.771Z,50.56
2019-04-23T02:28:42.830Z,50.62
2019-04-23T02:31:21.412Z,50.73
2019-04-23T02:33:44.656Z,50.95
2019-04-23T02:36:07.499Z,50.93
2019-04-23T02:38:45.267Z,51.09
2019-04-23T02:41:19.851Z,51.13
2019-04-23T02:43:39.146Z,51.25
2019-04-23T02:46:05.639Z,51.41
2019-04-23T02:48:44.410Z,51.37
2019-04-23T02:51:10.936Z,51.41
2019-04-23T02:56:23.761Z,51.67
2019-04-23T02:58:46.138Z,51.81
2019-04-23T03:01:25.246Z,51.88
2019-04-23T03:03:59.794Z,52.12
2019-04-23T03:08:46.538Z,52.36
2019-04-23T03:11:15.633Z,52.40
2019-04-23T03:18:52.124Z,52.57
2019-04-23T03:24:25.095Z,52.74
2019-04-23T03:35:20.335Z,53.10
2019-04-23T03:37:20.302Z,53.18
2019-04-23T03:39:34.535Z,53.21
2019-04-23T03:42:15.571Z,53.29
2019-04-23T03:44:29.145Z,53.33
2019-04-23T03:46:51.430Z,53.40
2019-04-23T03:49:33.296Z,53.34
2019-04-23T04:11:56.688Z,53.65
2019-04-23T04:14:38.138Z,53.47
2019-04-23T04:16:59.789Z,53.54
2019-04-23T04:19:31.591Z,53.37
2019-04-23T04:22:00.260Z,53.42
2019-04-23T04:24:37.017Z,53.35
2019-04-23T04:37:29.757Z,53.19
2019-04-23T04:39:27.176Z,52.92
2019-04-23T04:41:58.676Z,51.52
2019-04-23T04:49:30.128Z,45.10
2019-04-23T04:52:11.263Z,43.83
2019-04-23T04:54:24.551Z,42.59
2019-04-23T04:59:25.874Z,41.05
2019-04-23T05:04:47.616Z,39.62
2019-04-23T05:09:32.659Z,38.22
2019-04-23T05:12:01.628Z,38.03
2019-04-23T05:16:57.425Z,37.32
2019-04-23T05:19:40.769Z,37.09
2019-04-23T05:24:30.419Z,38.01
2019-04-23T05:26:55.566Z,37.60
2019-04-23T05:29:20.352Z,36.90
2019-04-23T05:31:53.440Z,36.52
2019-04-23T05:34:23.972Z,36.61
2019-04-23T05:36:53.977Z,36.39
2019-04-23T05:39:31.016Z,36.24
2019-04-23T05:41:53.562Z,36.01
2019-04-23T05:44:29.937Z,36.27
2019-04-23T05:49:24.817Z,36.00
2019-04-23T05:52:00.431Z,35.55
2019-04-23T05:54:26.623Z,35.90
2019-04-23T05:56:58.400Z,36.09
2019-04-23T05:59:27.495Z,36.10
2019-04-23T06:01:57.269Z,36.15
2019-04-23T06:07:11.515Z,36.48
2019-04-23T06:09:25.230Z,37.08
2019-04-23T06:12:00.054Z,37.65
2019-04-23T06:14:25.002Z,38.36
2019-04-23T06:16:57.657Z,39.26
2019-04-23T06:19:24.698Z,39.90
2019-04-23T06:27:01.223Z,40.93
2019-04-23T06:31:54.054Z,41.24
2019-04-23T06:34:31.378Z,41.11
2019-04-23T06:36:58.981Z,40.89
2019-04-23T06:39:33.253Z,40.97
2019-04-23T06:41:57.183Z,40.88
2019-04-23T06:49:30.548Z,40.38
2019-04-23T06:52:08.643Z,40.28
2019-04-23T06:54:36.124Z,40.24
2019-04-23T06:59:42.488Z,39.36
2019-04-23T07:04:37.966Z,39.15
2019-04-23T07:07:24.147Z,39.01
2019-04-23T07:09:20.611Z,38.96
2019-04-23T07:12:00.355Z,38.97
2019-04-23T07:14:30.467Z,38.92
2019-04-23T07:16:58.359Z,39.14
2019-04-23T07:19:32.122Z,39.14
2019-04-23T07:22:11.381Z,38.87
2019-04-23T07:24:38.362Z,38.69
2019-04-23T07:26:45.372Z,38.85
2019-04-23T07:29:30.846Z,38.88
2019-04-23T07:34:23.298Z,38.33
2019-04-23T07:37:01.786Z,38.09
2019-04-23T07:39:58.594Z,38.31
2019-04-23T07:42:28.037Z,38.01
2019-04-23T07:45:01.940Z,37.97
2019-04-23T07:47:50.833Z,38.06
2019-04-23T07:52:52.729Z,37.38
2019-04-23T07:55:26.993Z,37.19
2019-04-23T07:57:51.081Z,36.85
2019-04-23T08:00:18.228Z,36.91
2019-04-23T08:02:47.109Z,36.72
2019-04-23T08:05:25.194Z,36.50
2019-04-23T08:07:54.122Z,36.62
2019-04-23T08:10:22.573Z,36.61
2019-04-23T08:12:53.785Z,36.69
2019-04-23T08:15:23.120Z,36.49
2019-04-23T08:17:43.446Z,36.09
2019-04-23T08:20:23.090Z,35.96
2019-04-23T08:22:45.466Z,35.87
2019-04-23T08:25:47.228Z,35.77
2019-04-23T08:28:16.993Z,35.26
2019-04-23T08:30:37.783Z,35.08
2019-04-23T08:35:43.634Z,35.01
2019-04-23T08:40:47.282Z,34.24
2019-04-23T08:43:29.601Z,34.19
2019-04-23T08:45:58.194Z,34.16
2019-04-23T08:51:10.773Z,34.15
2019-04-23T08:53:37.738Z,33.99
2019-04-23T08:56:18.429Z,33.85
2019-04-23T08:58:46.340Z,33.78
2019-04-23T09:01:05.657Z,33.61
2019-04-23T09:03:31.339Z,33.59
2019-04-23T09:08:32.710Z,33.17
2019-04-23T09:11:04.419Z,33.24
2019-04-23T09:16:13.642Z,32.75
2019-04-23T09:21:03.470Z,32.52
2019-04-23T09:23:45.124Z,32.58
2019-04-23T09:25:57.534Z,32.52
2019-04-23T09:31:18.755Z,32.39
2019-04-23T09:33:51.982Z,32.21
2019-04-23T09:39:00.239Z,31.92
2019-04-23T09:41:31.324Z,31.82
2019-04-23T09:46:44.057Z,31.93
2019-04-23T09:49:20.915Z,31.76
2019-04-23T09:51:51.213Z,31.75
2019-04-23T09:54:17.430Z,31.56
2019-04-23T09:56:47.808Z,31.38
2019-04-23T09:59:28.635Z,31.45
2019-04-23T10:01:37.498Z,31.12
2019-04-23T10:04:05.599Z,30.87
2019-04-23T10:06:24.954Z,30.75
2019-04-23T10:08:54.435Z,30.56
2019-04-23T10:11:22.030Z,30.50
2019-04-23T10:13:50.548Z,30.13
2019-04-23T10:16:21.077Z,29.96
2019-04-23T10:18:49.177Z,29.76
2019-04-23T10:21:17.669Z,29.88
2019-04-23T10:23:47.492Z,29.84
2019-04-23T10:26:16.499Z,29.63
2019-04-23T10:28:47.672Z,29.74
2019-04-23T10:31:16.737Z,29.72
2019-04-23T10:33:46.163Z,29.63
2019-04-23T10:36:19.132Z,29.51
2019-04-23T10:38:51.305Z,29.16
2019-04-23T10:41:16.084Z,28.96
2019-04-23T10:43:50.055Z,29.21
2019-04-23T10:46:36.450Z,28.73
2019-04-23T10:51:53.570Z,28.85
2019-04-23T10:56:56.970Z,28.55
2019-04-23T10:59:30.047Z,28.43
2019-04-23T11:01:58.126Z,28.00
2019-04-23T11:04:38.486Z,28.08
2019-04-23T11:06:53.648Z,27.86
2019-04-23T11:09:47.001Z,27.99
2019-04-23T11:12:14.399Z,28.07
2019-04-23T11:14:33.833Z,28.00
2019-04-23T11:17:03.722Z,28.08
2019-04-23T11:19:40.490Z,27.68
2019-04-23T11:22:20.930Z,27.86
2019-04-23T11:27:05.420Z,28.00
2019-04-23T11:29:34.103Z,28.07
2019-04-23T11:32:23.641Z,28.03
2019-04-23T11:35:01.911Z,27.89
2019-04-23T11:37:06.300Z,27.79
2019-04-23T11:39:39.625Z,27.65
2019-04-23T11:42:19.362Z,27.49
2019-04-23T11:44:40.107Z,27.05
2019-04-23T11:52:07.891Z,26.98
2019-04-23T11:57:21.160Z,27.25
2019-04-23T12:02:07.149Z,26.80
2019-04-23T12:04:47.979Z,26.86
2019-04-23T12:07:18.719Z,26.91
2019-04-23T12:09:50.237Z,27.02
2019-04-23T12:12:17.152Z,26.97
2019-04-23T12:14:50.838Z,26.88
2019-04-23T12:20:06.416Z,26.91
2019-04-23T12:22:29.476Z,26.92
2019-04-23T12:30:03.569Z,27.07
2019-04-23T12:37:36.408Z,26.84
2019-04-23T12:40:05.905Z,26.68
2019-04-23T12:57:37.202Z,26.76
2019-04-23T13:00:05.602Z,26.46
2019-04-23T13:05:26.011Z,25.94
2019-04-23T13:07:38.248Z,25.93
2019-04-23T13:10:23.186Z,26.18
2019-04-23T13:12:44.735Z,26.33
2019-04-23T13:15:11.416Z,26.50
2019-04-23T13:20:14.965Z,26.35
2019-04-23T13:22:39.793Z,26.11
2019-04-23T13:25:10.124Z,26.00
2019-04-23T13:30:16.902Z,26.23
2019-04-23T13:32:48.840Z,26.38
2019-04-23T13:35:28.139Z,26.61
2019-04-23T13:40:21.347Z,26.57
2019-04-23T13:42:55.175Z,26.60
2019-04-23T13:45:33.780Z,26.32
2019-04-23T13:50:35.479Z,26.05
2019-04-23T13:55:10.960Z,26.39
2019-04-23T13:58:02.679Z,26.36
2019-04-23T14:00:21.098Z,26.64
2019-04-23T14:02:43.827Z,26.44
2019-04-23T14:05:23.973Z,26.53
2019-04-23T14:10:29.794Z,26.38
2019-04-23T14:13:03.681Z,26.43
2019-04-23T14:18:10.790Z,26.54
2019-04-23T14:20:23.027Z,26.46
2019-04-23T14:25:19.137Z,26.46
2019-04-23T14:28:00.198Z,26.44
2019-04-23T14:32:53.717Z,26.74
2019-04-23T14:35:25.809Z,26.60
2019-04-23T14:38:09.713Z,26.64
2019-04-23T14:40:26.632Z,26.80
2019-04-23T14:43:03.550Z,26.94
2019-04-23T14:48:04.249Z,27.24
2019-04-23T14:53:12.132Z,27.38
2019-04-23T14:58:11.744Z,27.32
2019-04-23T15:00:33.982Z,27.27
2019-04-23T15:03:15.488Z,27.38
2019-04-23T15:05:35.733Z,27.45
2019-04-23T15:08:06.255Z,27.58
2019-04-23T15:10:41.595Z,27.58
2019-04-23T15:13:07.207Z,27.68
2019-04-23T15:15:34.361Z,27.80
2019-04-23T15:18:21.267Z,28.07
2019-04-23T15:20:41.446Z,28.43
2019-04-23T15:23:25.434Z,28.69
2019-04-23T15:30:38.753Z,29.23
2019-04-23T15:33:23.547Z,29.41
2019-04-23T15:38:30.436Z,29.03
2019-04-23T15:41:01.908Z,29.11
2019-04-23T15:43:10.306Z,29.49
2019-04-23T15:48:16.047Z,29.88
2019-04-23T15:50:44.029Z,30.06
2019-04-23T15:53:04.922Z,30.41
2019-04-23T15:55:44.167Z,30.64
2019-04-23T15:58:16.905Z,31.06
2019-04-23T16:00:43.302Z,31.29
2019-04-23T16:02:43.223Z,31.38
2019-04-23T16:05:12.811Z,31.39
2019-04-23T16:08:06.079Z,31.31
2019-04-23T16:10:49.903Z,31.46
2019-04-23T16:13:12.978Z,31.65
2019-04-23T16:15:44.281Z,31.76
2019-04-23T16:18:23.723Z,31.72
2019-04-23T16:23:17.863Z,31.95
2019-04-23T16:25:46.645Z,32.16
2019-04-23T16:28:18.898Z,32.39
2019-04-23T16:30:50.059Z,32.46
2019-04-23T16:33:16.364Z,32.48
2019-04-23T16:38:33.639Z,32.51
2019-04-23T16:41:03.871Z,32.55
2019-04-23T16:45:51.825Z,32.69
2019-04-23T16:51:11.421Z,32.75
2019-04-23T16:53:20.973Z,32.79
2019-04-23T16:55:55.103Z,33.04
2019-04-23T16:58:26.441Z,33.12
2019-04-23T17:01:02.069Z,33.18
2019-04-23T17:05:57.081Z,33.29
2019-04-23T17:11:08.847Z,33.39
2019-04-23T17:13:20.167Z,33.46
2019-04-23T17:16:00.302Z,33.55
2019-04-23T17:18:24.616Z,33.69
2019-04-23T17:23:32.836Z,33.76
2019-04-23T17:25:59.185Z,33.89
2019-04-23T17:28:25.583Z,34.16
2019-04-23T17:31:03.450Z,34.34
2019-04-23T17:33:27.687Z,34.57
2019-04-23T17:36:21.092Z,34.73
2019-04-23T17:38:49.544Z,34.86
2019-04-23T17:41:31.200Z,35.04
2019-04-23T17:44:09.531Z,35.23
2019-04-23T17:49:04.680Z,35.53
2019-04-23T17:51:26.266Z,35.70
2019-04-23T17:54:19.430Z,35.89
2019-04-23T17:59:09.201Z,36.14
2019-04-23T18:01:59.454Z,36.38
2019-04-23T18:06:50.890Z,36.69
2019-04-23T18:11:31.183Z,37.05
2019-04-23T18:14:03.878Z,37.17
2019-04-23T18:16:41.032Z,37.28
2019-04-23T18:21:46.152Z,37.75
2019-04-23T18:24:17.966Z,38.04
2019-04-23T18:27:01.247Z,38.27
2019-04-23T18:29:31.616Z,38.61
2019-04-23T18:32:13.040Z,38.97
2019-04-23T18:35:04.352Z,39.17
2019-04-23T18:37:12.106Z,39.64
2019-04-23T18:39:43.714Z,39.97
2019-04-23T18:42:18.246Z,39.84
2019-04-23T18:44:42.111Z,40.33
2019-04-23T18:47:17.376Z,40.62
2019-04-23T18:49:42.866Z,40.71
2019-04-23T18:52:20.880Z,41.08
2019-04-23T18:54:44.986Z,41.32
2019-04-23T19:02:37.261Z,42.36
2019-04-23T19:07:42.571Z,42.69
2019-04-23T19:10:29.457Z,42.75
2019-04-23T19:12:50.059Z,42.82
2019-04-23T19:22:55.066Z,43.02
2019-04-23T19:25:25.127Z,43.02
2019-04-23T19:32:59.231Z,43.15
2019-04-23T19:35:40.140Z,43.39
2019-04-23T19:40:35.184Z,43.99
2019-04-23T19:42:55.218Z,44.09
2019-04-23T19:45:28.528Z,44.33
2019-04-23T19:47:58.674Z,44.73
2019-04-23T19:50:32.928Z,45.23
2019-04-23T19:55:24.188Z,45.76
2019-04-23T20:00:33.859Z,46.31
2019-04-23T20:03:09.833Z,46.65
2019-04-23T20:05:23.351Z,46.83
2019-04-23T20:08:17.517Z,47.05
2019-04-23T20:10:30.352Z,47.31
2019-04-23T20:12:51.724Z,47.52
2019-04-23T20:15:25.202Z,47.60
2019-04-23T20:20:28.672Z,47.94
2019-04-23T20:22:56.799Z,48.05
2019-04-23T20:25:56.863Z,48.20
2019-04-23T20:28:02.647Z,48.31
2019-04-23T20:36:00.795Z,49.13
2019-04-23T20:38:59.313Z,49.06
2019-04-23T20:40:53.714Z,49.45
2019-04-23T20:43:23.687Z,49.73
2019-04-23T20:46:00.261Z,49.89
2019-04-23T20:48:31.077Z,50.06
2019-04-23T20:50:54.321Z,50.17
2019-04-23T20:53:28.346Z,50.34
2019-04-23T20:56:01.510Z,50.58
2019-04-23T20:58:31.329Z,50.64
2019-04-23T21:01:07.631Z,50.88
2019-04-23T21:06:05.018Z,51.67
2019-04-23T21:08:51.822Z,51.85
2019-04-23T21:10:58.277Z,51.91
2019-04-23T21:13:53.894Z,52.22
2019-04-23T21:15:59.725Z,52.37
2019-04-23T21:18:35.951Z,52.82
2019-04-23T21:21:01.986Z,53.05
2019-04-23T21:23:37.622Z,53.43
2019-04-23T21:25:57.051Z,53.59
2019-04-23T21:28:40.079Z,53.78
2019-04-23T21:31:19.014Z,53.81
2019-04-23T21:33:46.109Z,54.04
2019-04-23T21:36:43.421Z,53.98
2019-04-23T21:41:50.931Z,54.76
2019-04-23T21:46:47.614Z,54.82
2019-04-23T21:49:24.763Z,54.97
2019-04-23T21:51:46.345Z,55.26
2019-04-23T21:54:00.022Z,55.15
2019-04-23T21:56:39.619Z,55.29
2019-04-23T21:59:07.318Z,55.71
2019-04-23T22:01:44.761Z,55.58
2019-04-23T22:04:17.337Z,55.79
2019-04-23T22:06:43.307Z,56.04
2019-04-23T22:09:16.047Z,55.73
2019-04-23T22:14:29.017Z,55.88
2019-04-23T22:19:15.083Z,55.73
2019-04-23T22:21:45.215Z,55.60
2019-04-23T22:24:21.209Z,55.81
2019-04-23T22:26:38.104Z,55.77
2019-04-23T22:29:26.233Z,55.60
2019-04-23T22:31:45.791Z,55.70
2019-04-23T22:36:50.722Z,55.97
2019-04-23T22:39:12.637Z,55.98
2019-04-23T22:41:51.932Z,56.02
2019-04-23T22:44:14.420Z,55.98
2019-04-23T22:46:52.118Z,56.05
2019-04-23T22:49:22.897Z,56.29
2019-04-23T23:01:54.734Z,56.44
2019-04-23T23:04:22.689Z,56.37
2019-04-23T23:09:25.953Z,56.28
2019-04-23T23:16:51.470Z,56.22
2019-04-23T23:19:21.746Z,56.18
2019-04-23T23:21:58.257Z,56.25
2019-04-23T23:29:19.796Z,56.16
2019-04-23T23:34:15.662Z,56.38
2019-04-23T23:36:54.915Z,56.44
2019-04-23T23:39:22.743Z,56.51
2019-04-23T23:46:56.307Z,56.55
2019-04-23T23:49:27.978Z,56.59
2019-04-23T23:51:49.333Z,56.51
2019-04-23T23:54:13.329Z,56.47
2019-04-23T23:56:58.441Z,56.32
2019-04-23T23:59:21.123Z,56.16
